Time;durP1;ratioP1;P1;durP2;ratioP2;P2;SDS_P1;SDS_P2;PMS_P1;PMS_P2;Temp;Humidity;BMP_temperature;BMP_pressure;BME280_temperature;BME280_humidity;BME280_pressure;Samples;Min_cycle;Max_cycle;Signal;HPM_P1;HPM_P2
2021/01/27 00:02:23;;;;;;;38.47;16.33;;;;;;;;;;8157406;28;20469;-72
2021/01/27 00:06:27;;;;;;;59.50;21.33;;;;;;;;;;8155604;28;20532;-72
2021/01/27 00:10:31;;;;;;;44.33;16.48;;;;;;;;;;8158895;28;20050;-73
2021/01/27 00:14:34;;;;;;;36.95;13.20;;;;;;;;;;8156631;28;20400;-72
2021/01/27 00:18:37;;;;;;;37.47;14.57;;;;;;;;;;8154336;28;20376;-72
2021/01/27 00:22:41;;;;;;;27.90;13.30;;;;;;;;;;8156982;28;20073;-72
2021/01/27 00:26:44;;;;;;;38.40;14.57;;;;;;;;;;8152831;28;20392;-72
2021/01/27 00:30:47;;;;;;;31.52;14.00;;;;;;;;;;8138669;28;20389;-72
2021/01/27 00:34:50;;;;;;;31.45;13.35;;;;;;;;;;8156915;28;20428;-72
2021/01/27 00:38:53;;;;;;;33.05;13.05;;;;;;;;;;8155491;28;20532;-72
2021/01/27 00:42:56;;;;;;;34.00;14.25;;;;;;;;;;8153656;28;20477;-72
2021/01/27 00:46:59;;;;;;;33.60;13.40;;;;;;;;;;8153997;28;20488;-72
2021/01/27 00:51:03;;;;;;;31.77;13.50;;;;;;;;;;8156495;28;20496;-72
2021/01/27 00:55:19;;;;;;;29.77;13.63;;;;;;;;;;8156261;28;20046;-72
2021/01/27 00:59:26;;;;;;;37.88;15.93;;;;;;;;;;8137231;28;20046;-72
2021/01/27 01:03:30;;;;;;;46.10;17.30;;;;;;;;;;8156583;28;20368;-72
2021/01/27 01:07:33;;;;;;;47.42;19.08;;;;;;;;;;8155094;28;20465;-72
2021/01/27 01:11:36;;;;;;;49.92;18.10;;;;;;;;;;8140262;28;20076;-72
2021/01/27 01:15:39;;;;;;;37.63;16.77;;;;;;;;;;8152244;28;20418;-72
2021/01/27 01:19:43;;;;;;;60.20;21.63;;;;;;;;;;8137633;28;20512;-72
2021/01/27 01:23:46;;;;;;;39.83;17.40;;;;;;;;;;8137993;28;20416;-70
2021/01/27 01:27:49;;;;;;;45.83;18.50;;;;;;;;;;8152587;28;20406;-70
2021/01/27 01:31:52;;;;;;;40.15;17.55;;;;;;;;;;8153874;28;20072;-70
2021/01/27 01:35:56;;;;;;;57.50;24.70;;;;;;;;;;8155522;28;20408;-70
2021/01/27 01:39:59;;;;;;;37.72;19.33;;;;;;;;;;8157054;28;20054;-70
2021/01/27 01:44:02;;;;;;;63.55;22.85;;;;;;;;;;8157299;28;20513;-71
2021/01/27 01:48:18;;;;;;;43.53;17.90;;;;;;;;;;8137653;28;20386;-70
2021/01/27 01:52:22;;;;;;;45.80;20.30;;;;;;;;;;8155671;28;20488;-71
2021/01/27 01:56:30;;;;;;;45.40;18.17;;;;;;;;;;8153063;28;20392;-71
2021/01/27 02:00:33;;;;;;;;;;;;;;;;;;8154204;28;20058;-71
2021/01/27 02:04:49;;;;;;;35.85;17.35;;;;;;;;;;8154835;28;20248;-72
2021/01/27 02:08:58;;;;;;;53.70;22.73;;;;;;;;;;8153115;28;20076;-71
2021/01/27 02:13:42;;;;;;;47.30;18.35;;;;;;;;;;8153883;28;20474;-72
2021/01/27 02:18:13;;;;;;;43.60;17.50;;;;;;;;;;8153419;28;20054;-71
2021/01/27 02:22:44;;;;;;;44.42;18.58;;;;;;;;;;8156020;28;20487;-71
2021/01/27 02:27:18;;;;;;;34.22;17.67;;;;;;;;;;8160461;28;20374;-71
2021/01/27 02:31:34;;;;;;;48.78;18.25;;;;;;;;;;8162660;28;20462;-72
2021/01/27 02:35:57;;;;;;;39.85;16.73;;;;;;;;;;8143129;28;20389;-71
2021/01/27 02:40:14;;;;;;;50.33;21.17;;;;;;;;;;8159166;28;20409;-71
2021/01/27 02:44:24;;;;;;;69.63;27.23;;;;;;;;;;8157924;28;20107;-72
2021/01/27 02:48:44;;;;;;;64.97;24.08;;;;;;;;;;8139927;28;20414;-72
2021/01/27 02:52:56;;;;;;;66.40;26.65;;;;;;;;;;8159435;28;20496;-72
2021/01/27 02:57:47;;;;;;;61.63;23.30;;;;;;;;;;8156594;28;20073;-72
2021/01/27 03:02:10;;;;;;;52.10;21.63;;;;;;;;;;8149099;28;20474;-72
2021/01/27 03:06:17;;;;;;;39.50;19.73;;;;;;;;;;8156676;28;20395;-72
2021/01/27 03:10:23;;;;;;;38.95;19.25;;;;;;;;;;8158199;28;20054;-71
2021/01/27 03:14:26;;;;;;;36.20;17.88;;;;;;;;;;8158610;28;20066;-73
2021/01/27 03:18:33;;;;;;;46.85;20.58;;;;;;;;;;8157578;28;20389;-71
2021/01/27 03:23:12;;;;;;;37.75;17.30;;;;;;;;;;8158851;28;20047;-72
2021/01/27 03:27:23;;;;;;;50.05;22.65;;;;;;;;;;8156028;28;20054;-72
2021/01/27 03:31:26;;;;;;;50.72;22.58;;;;;;;;;;8159644;28;20072;-72
2021/01/27 03:35:42;;;;;;;54.15;23.08;;;;;;;;;;8158755;28;20511;-72
2021/01/27 03:39:52;;;;;;;69.82;28.10;;;;;;;;;;8157285;28;20050;-72
2021/01/27 03:43:57;;;;;;;42.28;19.25;;;;;;;;;;8158154;28;20050;-72
2021/01/27 03:48:26;;;;;;;51.50;22.63;;;;;;;;;;8157683;28;20080;-72
2021/01/27 03:52:36;;;;;;;;;;;;;;;;;;8158801;28;20059;-72
2021/01/27 03:57:00;;;;;;;31.13;16.42;;;;;;;;;;8155467;28;20253;-72
2021/01/27 04:01:17;;;;;;;35.47;18.02;;;;;;;;;;8141459;28;20412;-74
2021/01/27 04:05:20;;;;;;;30.23;16.33;;;;;;;;;;8158055;28;20381;-72
2021/01/27 04:09:23;;;;;;;37.60;18.25;;;;;;;;;;8156573;28;20073;-72
2021/01/27 04:13:28;;;;;;;38.20;17.15;;;;;;;;;;8157347;28;20081;-72
2021/01/27 04:17:32;;;;;;;36.17;18.08;;;;;;;;;;8155710;28;20362;-72
2021/01/27 04:21:35;;;;;;;39.40;17.95;;;;;;;;;;8159604;28;20481;-72
2021/01/27 04:25:39;;;;;;;32.53;17.67;;;;;;;;;;8157487;28;20457;-72
2021/01/27 04:29:42;;;;;;;33.30;17.15;;;;;;;;;;8138500;28;20481;-72
2021/01/27 04:33:46;;;;;;;811.90;255.10;;;;;;;;;;8157704;28;20482;-71
2021/01/27 04:37:49;;;;;;;690.95;230.75;;;;;;;;;;8155416;28;20454;-71
2021/01/27 04:41:54;;;;;;;468.13;108.18;;;;;;;;;;8156073;28;20453;-72
2021/01/27 04:46:13;;;;;;;186.23;49.20;;;;;;;;;;8153880;28;20081;-71
2021/01/27 04:50:26;;;;;;;123.65;38.63;;;;;;;;;;8156099;28;20345;-71
2021/01/27 04:54:45;;;;;;;72.70;29.92;;;;;;;;;;8140554;28;20393;-71
2021/01/27 04:59:47;;;;;;;40.15;17.85;;;;;;;;;;8153898;28;20504;-72
2021/01/27 05:04:28;;;;;;;267.63;75.22;;;;;;;;;;8140663;28;20405;-72
2021/01/27 05:08:40;;;;;;;54.20;20.55;;;;;;;;;;8151409;28;20506;-72
2021/01/27 05:12:58;;;;;;;218.55;46.33;;;;;;;;;;8152756;28;20460;-72
2021/01/27 05:17:10;;;;;;;54.83;19.85;;;;;;;;;;8150216;28;20478;-71
2021/01/27 05:21:45;;;;;;;53.88;20.70;;;;;;;;;;8155803;28;20409;-72
2021/01/27 05:26:06;;;;;;;90.35;24.13;;;;;;;;;;8156608;28;20062;-71
2021/01/27 05:30:32;;;;;;;250.23;47.20;;;;;;;;;;8156856;28;20465;-71
2021/01/27 05:34:44;;;;;;;68.43;23.80;;;;;;;;;;8158984;28;20478;-71
2021/01/27 05:38:48;;;;;;;34.30;15.40;;;;;;;;;;8158467;28;20068;-71
2021/01/27 05:42:51;;;;;;;30.02;14.73;;;;;;;;;;8159366;28;20054;-71
2021/01/27 05:46:54;;;;;;;32.88;14.73;;;;;;;;;;8158239;28;20454;-71
2021/01/27 05:51:06;;;;;;;37.28;16.30;;;;;;;;;;8159969;28;20461;-71
2021/01/27 05:55:10;;;;;;;29.00;14.98;;;;;;;;;;8159395;28;20064;-71
2021/01/27 05:59:27;;;;;;;33.38;14.77;;;;;;;;;;8160388;28;20390;-71
2021/01/27 06:03:31;;;;;;;30.35;13.20;;;;;;;;;;8164906;28;20354;-71
2021/01/27 06:07:35;;;;;;;26.50;13.52;;;;;;;;;;8164629;28;20473;-71
2021/01/27 06:11:38;;;;;;;24.52;13.25;;;;;;;;;;8166131;28;20373;-71
2021/01/27 06:15:44;;;;;;;28.30;13.55;;;;;;;;;;8165291;28;20370;-71
2021/01/27 06:20:09;;;;;;;24.52;12.13;;;;;;;;;;8166042;28;20417;-72
2021/01/27 06:24:30;;;;;;;23.83;12.73;;;;;;;;;;8148323;28;20343;-71
2021/01/27 06:29:19;;;;;;;23.02;11.00;;;;;;;;;;8165923;28;20714;-71
2021/01/27 06:33:56;;;;;;;25.75;11.07;;;;;;;;;;8163947;28;20160;-71
2021/01/27 06:38:21;;;;;;;24.40;12.13;;;;;;;;;;8163016;28;20082;-71
2021/01/27 06:42:33;;;;;;;19.88;11.38;;;;;;;;;;8163569;28;20381;-71
2021/01/27 06:47:31;;;;;;;24.52;12.85;;;;;;;;;;8164518;28;20228;-71
2021/01/27 06:51:56;;;;;;;18.58;10.18;;;;;;;;;;8164513;28;20373;-71
2021/01/27 06:56:49;;;;;;;19.63;10.43;;;;;;;;;;8164371;28;20489;-71
2021/01/27 07:01:36;;;;;;;27.45;11.80;;;;;;;;;;8164905;28;20380;-72
2021/01/27 07:06:21;;;;;;;20.38;10.93;;;;;;;;;;8164082;28;20481;-72
2021/01/27 07:11:08;;;;;;;23.27;10.77;;;;;;;;;;8161003;28;20355;-71
2021/01/27 07:15:37;;;;;;;18.45;9.95;;;;;;;;;;8164138;28;20367;-72
2021/01/27 07:20:19;;;;;;;16.33;9.20;;;;;;;;;;8161960;28;20483;-71
2021/01/27 07:24:39;;;;;;;19.27;9.93;;;;;;;;;;8161421;28;20382;-72
2021/01/27 07:29:04;;;;;;;23.30;9.18;;;;;;;;;;8163860;28;20377;-72
2021/01/27 07:33:19;;;;;;;26.30;12.88;;;;;;;;;;8163576;28;20069;-72
2021/01/27 07:37:58;;;;;;;18.05;10.63;;;;;;;;;;8162529;28;20058;-71
2021/01/27 07:42:33;;;;;;;;;;;;;;;;;;8162668;28;20370;-72
2021/01/27 07:47:27;;;;;;;25.98;13.93;;;;;;;;;;8160871;28;20363;-72
2021/01/27 07:51:52;;;;;;;20.33;9.50;;;;;;;;;;8162989;28;20378;-73
2021/01/27 07:56:04;;;;;;;18.02;9.90;;;;;;;;;;8147089;28;20046;-72
2021/01/27 08:00:23;;;;;;;26.88;13.93;;;;;;;;;;8160626;28;20377;-72
2021/01/27 08:04:49;;;;;;;23.67;10.43;;;;;;;;;;8131387;28;20377;-72
2021/01/27 08:09:00;;;;;;;35.95;22.23;;;;;;;;;;8161310;28;20381;-72
2021/01/27 08:13:34;;;;;;;25.27;14.95;;;;;;;;;;8162033;28;20505;-72
2021/01/27 08:17:53;;;;;;;61.08;25.85;;;;;;;;;;8160900;28;20473;-73
2021/01/27 08:22:00;;;;;;;70.45;27.45;;;;;;;;;;8161607;28;20469;-72
2021/01/27 08:26:06;;;;;;;58.88;27.27;;;;;;;;;;8160742;28;20366;-72
2021/01/27 08:30:21;;;;;;;42.53;21.10;;;;;;;;;;8160167;28;20054;-72
2021/01/27 08:34:44;;;;;;;28.90;13.77;;;;;;;;;;8160144;28;20061;-72
2021/01/27 08:38:57;;;;;;;36.28;15.13;;;;;;;;;;8159785;28;20363;-72
2021/01/27 08:43:02;;;;;;;53.80;20.27;;;;;;;;;;8161048;28;20494;-72
2021/01/27 08:47:09;;;;;;;41.08;17.30;;;;;;;;;;8160971;28;20096;-72
2021/01/27 08:51:47;;;;;;;43.00;16.38;;;;;;;;;;8160742;28;20351;-72
2021/01/27 08:55:58;;;;;;;33.83;12.67;;;;;;;;;;8159780;28;20489;-72
2021/01/27 09:00:34;;;;;;;35.17;15.05;;;;;;;;;;8160851;28;20524;-74
2021/01/27 09:04:37;;;;;;;25.27;10.45;;;;;;;;;;8160370;28;20378;-72
2021/01/27 09:08:40;;;;;;;32.33;13.27;;;;;;;;;;8160727;28;20066;-72
2021/01/27 09:12:48;;;;;;;53.90;17.20;;;;;;;;;;8160042;28;20386;-72
2021/01/27 09:16:52;;;;;;;36.85;13.27;;;;;;;;;;8160472;28;20355;-72
2021/01/27 09:21:02;;;;;;;44.20;14.38;;;;;;;;;;8158940;28;20409;-72
2021/01/27 09:25:06;;;;;;;32.97;12.45;;;;;;;;;;8158004;28;20483;-72
2021/01/27 09:29:36;;;;;;;18.45;8.73;;;;;;;;;;8142690;28;20469;-72
2021/01/27 09:33:39;;;;;;;36.55;13.77;;;;;;;;;;8142385;28;20381;-72
2021/01/27 09:37:58;;;;;;;26.52;12.52;;;;;;;;;;8160097;28;20384;-72
2021/01/27 09:42:14;;;;;;;33.53;16.08;;;;;;;;;;8158141;28;20381;-74
2021/01/27 09:46:34;;;;;;;52.75;19.13;;;;;;;;;;8157800;28;20381;-72
2021/01/27 09:50:40;;;;;;;36.53;11.73;;;;;;;;;;8143284;28;20449;-72
2021/01/27 09:54:49;;;;;;;60.47;23.75;;;;;;;;;;8158349;28;20398;-72
2021/01/27 09:58:53;;;;;;;39.47;16.23;;;;;;;;;;8158543;28;20081;-72
2021/01/27 10:02:56;;;;;;;20.27;9.43;;;;;;;;;;8158523;28;20700;-72
2021/01/27 10:07:15;;;;;;;27.63;10.20;;;;;;;;;;8158663;28;20485;-72
2021/01/27 10:11:33;;;;;;;33.42;13.32;;;;;;;;;;8159533;28;20073;-73
2021/01/27 10:15:37;;;;;;;25.38;10.43;;;;;;;;;;8159406;28;20485;-72
2021/01/27 10:19:51;;;;;;;20.30;8.85;;;;;;;;;;8158346;28;20042;-72
2021/01/27 10:23:54;;;;;;;38.90;14.75;;;;;;;;;;8158339;28;20473;-72
2021/01/27 10:28:13;;;;;;;26.50;14.20;;;;;;;;;;8158888;28;20485;-72
2021/01/27 10:32:27;;;;;;;28.45;13.15;;;;;;;;;;8158974;28;20397;-73
2021/01/27 10:36:53;;;;;;;20.95;10.23;;;;;;;;;;8157006;28;20370;-72
2021/01/27 10:41:21;;;;;;;20.20;10.00;;;;;;;;;;8157629;28;20397;-72
2021/01/27 10:45:39;;;;;;;14.65;8.32;;;;;;;;;;8161191;28;20469;-72
2021/01/27 10:49:46;;;;;;;23.17;10.43;;;;;;;;;;8163044;28;20082;-72
2021/01/27 10:53:49;;;;;;;38.60;11.40;;;;;;;;;;8163461;28;20511;-73
2021/01/27 10:58:12;;;;;;;25.60;9.68;;;;;;;;;;8163101;28;20362;-73
2021/01/27 11:02:15;;;;;;;20.27;8.50;;;;;;;;;;8162555;28;20474;-72
2021/01/27 11:06:19;;;;;;;18.95;8.27;;;;;;;;;;8164495;28;20050;-73
2021/01/27 11:10:23;;;;;;;49.05;16.17;;;;;;;;;;8162342;28;20461;-75
2021/01/27 11:14:26;;;;;;;31.70;12.00;;;;;;;;;;8163768;28;20381;-72
2021/01/27 11:18:33;;;;;;;323.27;82.38;;;;;;;;;;8162816;28;20484;-72
2021/01/27 11:22:37;;;;;;;392.13;92.88;;;;;;;;;;8162229;28;20404;-73
2021/01/27 11:26:45;;;;;;;186.47;51.47;;;;;;;;;;8146199;28;20385;-73
2021/01/27 11:30:52;;;;;;;70.40;28.10;;;;;;;;;;8163166;28;20407;-72
2021/01/27 11:34:59;;;;;;;64.50;28.40;;;;;;;;;;8163359;28;20085;-73
2021/01/27 11:39:04;;;;;;;30.77;14.82;;;;;;;;;;8163221;28;20487;-73
2021/01/27 11:43:07;;;;;;;41.47;16.17;;;;;;;;;;8161998;28;20389;-73
2021/01/27 11:47:10;;;;;;;17.70;8.02;;;;;;;;;;8163692;28;20469;-73
2021/01/27 11:51:15;;;;;;;35.05;12.57;;;;;;;;;;8161162;28;20473;-73
2021/01/27 11:55:22;;;;;;;29.13;10.57;;;;;;;;;;8161466;28;20488;-73
2021/01/27 11:59:25;;;;;;;29.05;10.77;;;;;;;;;;8161713;28;20108;-73
2021/01/27 12:03:28;;;;;;;26.83;10.15;;;;;;;;;;8162208;28;20503;-73
2021/01/27 12:07:32;;;;;;;14.30;7.35;;;;;;;;;;8162287;28;20369;-73
2021/01/27 12:11:35;;;;;;;26.73;9.50;;;;;;;;;;8161212;28;20393;-72
2021/01/27 12:15:39;;;;;;;57.97;19.45;;;;;;;;;;8161499;28;20592;-73
2021/01/27 12:19:42;;;;;;;58.92;17.55;;;;;;;;;;8162176;28;20050;-73
2021/01/27 12:23:46;;;;;;;25.58;8.98;;;;;;;;;;8162052;28;20383;-73
2021/01/27 12:27:49;;;;;;;34.13;10.45;;;;;;;;;;8160693;28;20369;-73
2021/01/27 12:31:53;;;;;;;20.83;8.68;;;;;;;;;;8160278;28;20478;-74
2021/01/27 12:35:56;;;;;;;23.35;8.68;;;;;;;;;;8159780;28;20050;-74
2021/01/27 12:40:01;;;;;;;23.92;9.10;;;;;;;;;;8161323;28;20366;-73
2021/01/27 12:44:07;;;;;;;32.42;10.65;;;;;;;;;;8161295;28;20046;-72
2021/01/27 12:48:10;;;;;;;39.97;13.65;;;;;;;;;;8143785;28;20488;-72
2021/01/27 12:52:14;;;;;;;29.08;11.85;;;;;;;;;;8131050;28;20461;-72
2021/01/27 12:56:20;;;;;;;71.13;25.15;;;;;;;;;;8159181;28;20358;-72
2021/01/27 13:00:25;;;;;;;37.97;15.10;;;;;;;;;;8159431;28;20458;-73
2021/01/27 13:04:30;;;;;;;32.80;11.75;;;;;;;;;;8128423;28;20072;-73
2021/01/27 13:08:33;;;;;;;45.42;16.83;;;;;;;;;;8160061;28;20486;-72
2021/01/27 13:12:38;;;;;;;62.78;23.60;;;;;;;;;;8159774;28;20377;-72
2021/01/27 13:16:41;;;;;;;104.13;30.25;;;;;;;;;;8160108;28;20354;-72
2021/01/27 13:20:44;;;;;;;45.72;17.40;;;;;;;;;;8159892;28;20495;-72
2021/01/27 13:24:50;;;;;;;32.38;14.43;;;;;;;;;;8158939;28;20457;-72
2021/01/27 13:28:54;;;;;;;56.85;18.08;;;;;;;;;;8160329;28;20382;-72
2021/01/27 13:32:57;;;;;;;29.88;12.32;;;;;;;;;;8158335;28;20408;-72
2021/01/27 13:37:02;;;;;;;43.70;15.48;;;;;;;;;;8160172;28;20388;-72
2021/01/27 13:41:06;;;;;;;63.45;21.05;;;;;;;;;;8158194;28;20466;-72
2021/01/27 13:45:13;;;;;;;39.25;14.18;;;;;;;;;;8159614;28;20481;-72
2021/01/27 13:49:17;;;;;;;75.35;30.52;;;;;;;;;;8158662;28;20486;-72
2021/01/27 13:53:20;;;;;;;62.95;32.25;;;;;;;;;;8159502;28;20385;-72
2021/01/27 13:57:23;;;;;;;64.80;30.65;;;;;;;;;;8158434;28;20377;-72
2021/01/27 14:01:26;;;;;;;46.28;20.17;;;;;;;;;;8159989;28;20054;-73
2021/01/27 14:05:30;;;;;;;66.05;28.92;;;;;;;;;;8155061;28;20042;-72
2021/01/27 14:09:39;;;;;;;56.25;23.92;;;;;;;;;;8155115;28;20089;-72
2021/01/27 14:13:42;;;;;;;43.95;23.05;;;;;;;;;;8154234;28;20054;-74
2021/01/27 14:17:46;;;;;;;37.55;14.93;;;;;;;;;;8155470;28;20503;-73
2021/01/27 14:21:49;;;;;;;125.03;47.05;;;;;;;;;;8158979;28;20062;-74
2021/01/27 14:25:53;;;;;;;444.13;207.32;;;;;;;;;;8161639;28;20384;-73
2021/01/27 14:29:56;;;;;;;74.47;37.60;;;;;;;;;;8161184;28;20481;-73
2021/01/27 14:33:59;;;;;;;65.45;33.60;;;;;;;;;;8160638;28;20384;-74
2021/01/27 14:38:04;;;;;;;44.22;21.33;;;;;;;;;;8125428;28;20418;-71
2021/01/27 14:42:07;;;;;;;132.02;66.10;;;;;;;;;;8147206;28;20484;-74
2021/01/27 14:46:15;;;;;;;161.15;85.20;;;;;;;;;;8147430;28;20073;-72
2021/01/27 14:50:27;;;;;;;124.93;63.35;;;;;;;;;;8192587;28;20485;-73
2021/01/27 14:54:36;;;;;;;25.85;11.73;;;;;;;;;;8191473;28;20477;-74
2021/01/27 14:58:45;;;;;;;29.77;13.25;;;;;;;;;;8176534;28;20411;-74
2021/01/27 15:02:48;;;;;;;36.17;15.05;;;;;;;;;;8177022;28;20539;-74
2021/01/27 15:06:52;;;;;;;25.85;10.57;;;;;;;;;;8191550;28;20416;-74
2021/01/27 15:10:55;;;;;;;53.80;24.38;;;;;;;;;;8191709;28;20491;-73
2021/01/27 15:14:58;;;;;;;64.95;22.88;;;;;;;;;;8191794;28;20460;-74
2021/01/27 15:19:01;;;;;;;74.95;27.63;;;;;;;;;;8172017;28;20120;-73
2021/01/27 15:23:04;;;;;;;62.85;24.70;;;;;;;;;;8162540;28;20493;-74
2021/01/27 15:27:09;;;;;;;34.08;13.63;;;;;;;;;;8165220;28;20046;-72
2021/01/27 15:31:12;;;;;;;49.28;17.63;;;;;;;;;;8177751;28;20499;-73
2021/01/27 15:35:18;;;;;;;44.80;16.85;;;;;;;;;;8181202;28;20075;-74
2021/01/27 15:39:36;;;;;;;40.25;16.58;;;;;;;;;;8170113;28;20076;-73
2021/01/27 15:43:40;;;;;;;52.10;18.10;;;;;;;;;;8166667;28;20486;-73
2021/01/27 15:47:45;;;;;;;52.25;19.98;;;;;;;;;;8125421;28;20428;-72
2021/01/27 15:51:50;;;;;;;75.20;26.48;;;;;;;;;;8163782;28;20526;-75
2021/01/27 15:55:56;;;;;;;73.50;26.58;;;;;;;;;;8171273;28;20362;-74
2021/01/27 15:59:59;;;;;;;93.10;42.22;;;;;;;;;;8188239;28;20061;-73
2021/01/27 16:04:04;;;;;;;92.53;35.28;;;;;;;;;;8188384;28;20380;-73
2021/01/27 16:08:08;;;;;;;97.80;36.20;;;;;;;;;;8171724;28;20515;-72
2021/01/27 16:12:13;;;;;;;322.05;118.10;;;;;;;;;;8173157;28;20495;-73
2021/01/27 16:16:17;;;;;;;75.60;37.40;;;;;;;;;;8167838;28;20364;-73
2021/01/27 16:20:23;;;;;;;59.38;25.50;;;;;;;;;;8147200;28;20077;-73
2021/01/27 16:24:28;;;;;;;81.70;40.67;;;;;;;;;;8170219;28;20476;-73
2021/01/27 16:28:31;;;;;;;185.18;72.32;;;;;;;;;;8182222;28;20372;-72
2021/01/27 16:32:35;;;;;;;251.43;110.53;;;;;;;;;;8187699;28;20469;-72
2021/01/27 16:36:38;;;;;;;60.97;27.90;;;;;;;;;;8186009;28;20514;-72
2021/01/27 16:40:41;;;;;;;66.88;28.33;;;;;;;;;;8187257;28;20472;-72
2021/01/27 16:44:45;;;;;;;283.38;81.72;;;;;;;;;;8171158;28;20444;-73
2021/01/27 16:48:50;;;;;;;69.57;28.35;;;;;;;;;;8181974;28;20058;-72
2021/01/27 16:52:54;;;;;;;54.75;23.48;;;;;;;;;;8157000;28;20347;-73
2021/01/27 16:56:57;;;;;;;61.20;27.63;;;;;;;;;;8158731;28;20062;-73
2021/01/27 17:01:02;;;;;;;87.88;33.90;;;;;;;;;;8157929;28;20515;-72
2021/01/27 17:05:09;;;;;;;146.35;60.88;;;;;;;;;;8158915;28;20384;-72
2021/01/27 17:09:14;;;;;;;123.30;49.65;;;;;;;;;;8142996;28;20477;-73
2021/01/27 17:13:17;;;;;;;93.45;31.35;;;;;;;;;;8160186;28;20465;-73
2021/01/27 17:17:21;;;;;;;312.35;117.72;;;;;;;;;;8173264;28;20477;-72
2021/01/27 17:21:24;;;;;;;97.95;40.83;;;;;;;;;;8171555;28;20381;-73
2021/01/27 17:25:28;;;;;;;140.20;54.17;;;;;;;;;;8164865;28;20340;-74
2021/01/27 17:29:31;;;;;;;63.60;27.50;;;;;;;;;;8163015;28;20054;-72
2021/01/27 17:33:35;;;;;;;127.57;45.28;;;;;;;;;;8157974;28;20072;-73
2021/01/27 17:37:44;;;;;;;224.13;98.53;;;;;;;;;;8156482;28;20406;-72
2021/01/27 17:41:48;;;;;;;118.55;48.85;;;;;;;;;;8156337;28;20478;-73
2021/01/27 17:45:52;;;;;;;71.40;29.38;;;;;;;;;;8153371;28;20054;-73
2021/01/27 17:49:56;;;;;;;70.07;29.90;;;;;;;;;;8153717;28;20500;-72
2021/01/27 17:54:00;;;;;;;56.72;23.85;;;;;;;;;;8163188;28;20494;-72
2021/01/27 17:58:05;;;;;;;65.97;34.00;;;;;;;;;;8179717;28;20670;-72
2021/01/27 18:02:11;;;;;;;82.93;43.10;;;;;;;;;;8151138;28;20469;-72
2021/01/27 18:06:15;;;;;;;48.50;21.35;;;;;;;;;;8176634;28;20465;-72
2021/01/27 18:10:21;;;;;;;65.57;29.20;;;;;;;;;;8175730;28;20491;-73
2021/01/27 18:14:28;;;;;;;82.78;32.10;;;;;;;;;;8176457;28;20473;-73
2021/01/27 18:18:31;;;;;;;102.53;32.25;;;;;;;;;;8163133;28;20467;-72
2021/01/27 18:22:35;;;;;;;151.43;43.33;;;;;;;;;;8178639;28;20473;-73
2021/01/27 18:26:40;;;;;;;207.07;70.00;;;;;;;;;;8190606;28;20380;-73
2021/01/27 18:30:45;;;;;;;143.90;49.22;;;;;;;;;;8208634;28;20372;-73
2021/01/27 18:34:50;;;;;;;136.50;49.63;;;;;;;;;;8184323;28;20058;-73
2021/01/27 18:38:53;;;;;;;88.32;32.50;;;;;;;;;;8194435;28;20179;-74
2021/01/27 18:42:57;;;;;;;98.50;35.30;;;;;;;;;;8181624;28;20497;-73
2021/01/27 18:47:02;;;;;;;83.47;32.50;;;;;;;;;;8186043;28;20072;-72
2021/01/27 18:51:06;;;;;;;82.60;30.08;;;;;;;;;;8182811;28;20488;-72
2021/01/27 18:55:12;;;;;;;117.85;49.13;;;;;;;;;;8099781;28;20378;-72
2021/01/27 18:59:15;;;;;;;106.80;35.72;;;;;;;;;;8096825;28;20047;-73
2021/01/27 19:03:20;;;;;;;102.65;35.20;;;;;;;;;;8101127;28;20059;-71
2021/01/27 19:07:23;;;;;;;105.90;38.55;;;;;;;;;;8093056;28;20409;-72
2021/01/27 19:11:48;;;;;;;166.30;61.92;;;;;;;;;;8114001;28;20496;-72
2021/01/27 19:15:51;;;;;;;160.20;59.97;;;;;;;;;;8109798;28;20413;-72
2021/01/27 19:19:56;;;;;;;84.82;31.30;;;;;;;;;;8099667;28;20474;-72
2021/01/27 19:23:59;;;;;;;82.88;31.33;;;;;;;;;;8131731;28;20492;-72
2021/01/27 19:28:05;;;;;;;182.00;42.10;;;;;;;;;;8167666;28;20390;-72
2021/01/27 19:32:09;;;;;;;246.85;61.67;;;;;;;;;;8173157;28;20374;-73
2021/01/27 19:36:14;;;;;;;164.70;45.03;;;;;;;;;;8192511;28;20416;-74
2021/01/27 19:40:20;;;;;;;103.03;34.22;;;;;;;;;;8179804;28;20485;-72
2021/01/27 19:44:24;;;;;;;96.85;35.63;;;;;;;;;;8179038;28;20481;-72
2021/01/27 19:48:28;;;;;;;91.15;33.60;;;;;;;;;;8171486;28;20385;-72
2021/01/27 19:52:32;;;;;;;85.70;28.73;;;;;;;;;;8179785;28;20557;-72
2021/01/27 19:56:36;;;;;;;88.25;35.83;;;;;;;;;;8189704;28;20376;-72
2021/01/27 20:00:40;;;;;;;123.53;41.95;;;;;;;;;;8190397;28;20417;-72
2021/01/27 20:04:43;;;;;;;89.15;30.20;;;;;;;;;;8188327;28;20396;-72
2021/01/27 20:08:50;;;;;;;101.15;38.60;;;;;;;;;;8172424;28;20373;-72
2021/01/27 20:12:55;;;;;;;85.82;31.10;;;;;;;;;;8173635;28;20408;-72
2021/01/27 20:16:58;;;;;;;111.82;35.70;;;;;;;;;;8189872;28;20465;-72
2021/01/27 20:21:01;;;;;;;178.60;50.45;;;;;;;;;;8169532;28;20677;-72
2021/01/27 20:25:09;;;;;;;104.97;38.67;;;;;;;;;;8188592;28;20076;-72
2021/01/27 20:29:36;;;;;;;169.32;56.88;;;;;;;;;;8180855;28;20050;-71
2021/01/27 20:33:41;;;;;;;166.93;56.38;;;;;;;;;;8154584;28;20401;-72
2021/01/27 20:37:50;;;;;;;167.57;55.53;;;;;;;;;;8171857;28;20492;-74
2021/01/27 20:41:54;;;;;;;176.50;51.53;;;;;;;;;;8170623;28;20046;-73
2021/01/27 20:45:58;;;;;;;113.97;37.45;;;;;;;;;;8156038;28;20457;-73
2021/01/27 20:50:05;;;;;;;138.70;38.40;;;;;;;;;;8170368;28;20483;-72
2021/01/27 20:54:09;;;;;;;91.30;30.90;;;;;;;;;;8169873;28;20380;-73
2021/01/27 20:58:14;;;;;;;102.60;35.05;;;;;;;;;;8166860;28;20487;-72
2021/01/27 21:02:21;;;;;;;163.40;47.50;;;;;;;;;;8173570;28;20480;-72
2021/01/27 21:06:28;;;;;;;387.98;86.32;;;;;;;;;;8170303;28;20523;-72
2021/01/27 21:10:34;;;;;;;365.73;81.43;;;;;;;;;;8188163;28;20050;-72
2021/01/27 21:14:38;;;;;;;314.90;74.22;;;;;;;;;;8170436;28;20585;-75
2021/01/27 21:18:49;;;;;;;241.35;59.22;;;;;;;;;;8186837;28;20461;-73
2021/01/27 21:22:53;;;;;;;230.63;58.78;;;;;;;;;;8187269;28;20460;-72
2021/01/27 21:26:56;;;;;;;264.70;63.13;;;;;;;;;;8187010;28;20062;-72
2021/01/27 21:31:00;;;;;;;198.05;49.10;;;;;;;;;;8187363;28;20487;-71
2021/01/27 21:35:07;;;;;;;450.92;99.90;;;;;;;;;;8183842;28;20084;-77
2021/01/27 21:39:12;;;;;;;277.90;64.30;;;;;;;;;;8139081;28;20358;-72
2021/01/27 21:43:22;;;;;;;226.88;54.28;;;;;;;;;;8139363;28;20046;-72
2021/01/27 21:47:25;;;;;;;299.23;69.30;;;;;;;;;;8153664;28;20054;-72
2021/01/27 21:51:29;;;;;;;236.00;63.17;;;;;;;;;;8155919;28;20050;-72
2021/01/27 21:55:32;;;;;;;149.45;46.33;;;;;;;;;;8155405;28;20457;-72
2021/01/27 21:59:36;;;;;;;136.80;42.65;;;;;;;;;;8154842;28;20370;-71
2021/01/27 22:03:39;;;;;;;265.75;68.85;;;;;;;;;;8154861;28;20477;-72
2021/01/27 22:07:43;;;;;;;200.32;49.70;;;;;;;;;;8154218;28;20507;-72
2021/01/27 22:11:46;;;;;;;174.48;52.05;;;;;;;;;;8156102;28;20058;-72
2021/01/27 22:15:49;;;;;;;778.83;215.70;;;;;;;;;;8154390;28;20094;-72
2021/01/27 22:19:55;;;;;;;458.30;113.07;;;;;;;;;;8155762;28;20385;-72
2021/01/27 22:23:58;;;;;;;315.52;73.57;;;;;;;;;;8155021;28;20393;-72
2021/01/27 22:28:01;;;;;;;236.60;54.42;;;;;;;;;;8155239;28;20073;-71
2021/01/27 22:32:05;;;;;;;242.27;54.05;;;;;;;;;;8155109;28;20461;-73
2021/01/27 22:36:08;;;;;;;189.80;46.58;;;;;;;;;;8153046;28;20503;-72
2021/01/27 22:40:18;;;;;;;172.63;48.17;;;;;;;;;;8154693;28;20393;-73
2021/01/27 22:44:21;;;;;;;165.52;47.53;;;;;;;;;;8157547;28;20466;-72
2021/01/27 22:48:24;;;;;;;183.90;50.10;;;;;;;;;;8160819;28;20383;-72
2021/01/27 22:52:28;;;;;;;192.10;52.28;;;;;;;;;;8160164;28;20058;-72
2021/01/27 22:56:31;;;;;;;157.20;47.95;;;;;;;;;;8160036;28;20046;-72
2021/01/27 23:00:40;;;;;;;142.15;42.22;;;;;;;;;;8161293;28;20484;-72
2021/01/27 23:04:45;;;;;;;142.82;40.38;;;;;;;;;;8161530;28;20532;-72
2021/01/27 23:08:50;;;;;;;179.82;51.88;;;;;;;;;;8159519;28;20514;-72
2021/01/27 23:12:54;;;;;;;173.35;47.95;;;;;;;;;;8158302;28;20397;-72
2021/01/27 23:16:57;;;;;;;155.48;43.53;;;;;;;;;;8159238;28;20469;-72
2021/01/27 23:21:06;;;;;;;235.10;67.68;;;;;;;;;;8159592;28;20802;-72
2021/01/27 23:25:11;;;;;;;198.50;54.30;;;;;;;;;;8159064;28;20417;-72
2021/01/27 23:29:15;;;;;;;200.00;54.67;;;;;;;;;;8162467;28;20650;-72
2021/01/27 23:33:19;;;;;;;179.80;48.30;;;;;;;;;;8163225;28;20489;-72
2021/01/27 23:37:22;;;;;;;157.10;43.95;;;;;;;;;;8164316;28;20369;-72
2021/01/27 23:41:27;;;;;;;146.32;43.25;;;;;;;;;;8161665;28;20421;-72
2021/01/27 23:45:30;;;;;;;190.57;54.72;;;;;;;;;;8161360;28;20462;-72
2021/01/27 23:49:33;;;;;;;151.07;47.28;;;;;;;;;;8163564;28;20453;-72
2021/01/27 23:53:36;;;;;;;162.57;46.95;;;;;;;;;;8160462;28;20488;-72
2021/01/27 23:57:40;;;;;;;202.02;60.15;;;;;;;;;;8160438;28;20461;-71
